createdAt,value
2023-10-20T00:00:52.394Z,11.80
2023-10-20T00:03:19.483Z,11.80
2023-10-20T00:05:46.569Z,11.80
2023-10-20T00:08:13.557Z,11.80
2023-10-20T00:10:40.883Z,11.80
2023-10-20T00:13:08.019Z,11.90
2023-10-20T00:15:35.901Z,11.90
2023-10-20T00:18:06.091Z,11.80
2023-10-20T00:20:33.073Z,11.90
2023-10-20T00:23:00.030Z,11.90
2023-10-20T00:25:27.624Z,11.90
2023-10-20T00:27:55.183Z,12.00
2023-10-20T00:30:22.109Z,12.00
2023-10-20T00:32:49.273Z,12.00
2023-10-20T00:35:16.287Z,12.10
2023-10-20T00:37:43.357Z,12.10
2023-10-20T00:40:11.960Z,12.10
2023-10-20T00:42:39.550Z,12.10
2023-10-20T00:45:08.354Z,12.10
2023-10-20T00:47:39.245Z,12.10
2023-10-20T00:50:12.995Z,12.10
2023-10-20T00:52:47.131Z,12.10
2023-10-20T00:55:16.106Z,12.10
2023-10-20T00:57:47.198Z,12.10
2023-10-20T01:00:15.296Z,12.10
2023-10-20T01:02:42.668Z,12.10
2023-10-20T01:05:11.388Z,12.10
2023-10-20T01:07:38.524Z,12.10
2023-10-20T01:10:06.508Z,12.10
2023-10-20T01:12:34.118Z,12.00
2023-10-20T01:15:01.305Z,12.00
2023-10-20T01:17:29.010Z,12.00
2023-10-20T01:19:57.356Z,12.00
2023-10-20T01:22:24.438Z,12.00
2023-10-20T01:24:51.476Z,12.00
2023-10-20T01:27:18.677Z,12.00
2023-10-20T01:29:45.559Z,12.10
2023-10-20T01:32:12.589Z,12.10
2023-10-20T01:34:39.555Z,12.30
2023-10-20T01:37:08.189Z,12.50
2023-10-20T01:39:35.292Z,12.80
2023-10-20T01:42:02.163Z,13.10
2023-10-20T01:44:29.143Z,13.40
2023-10-20T01:46:56.194Z,13.70
2023-10-20T01:49:23.153Z,13.90
2023-10-20T01:51:50.053Z,14.20
2023-10-20T01:54:17.195Z,14.30
2023-10-20T01:56:45.197Z,14.50
2023-10-20T01:59:13.009Z,14.60
2023-10-20T02:01:40.047Z,14.70
2023-10-20T02:04:07.138Z,14.70
2023-10-20T02:06:34.098Z,14.80
2023-10-20T02:09:01.416Z,14.90
2023-10-20T02:11:28.478Z,15.00
2023-10-20T02:13:57.828Z,15.10
2023-10-20T02:16:25.699Z,15.10
2023-10-20T02:18:52.648Z,15.20
2023-10-20T02:21:19.565Z,15.30
2023-10-20T02:23:46.462Z,15.30
2023-10-20T02:26:13.394Z,15.40
2023-10-20T02:28:40.300Z,15.40
2023-10-20T02:31:15.682Z,15.40
2023-10-20T02:33:42.646Z,15.50
2023-10-20T02:36:09.524Z,15.50
2023-10-20T02:38:36.994Z,15.60
2023-10-20T02:41:05.200Z,15.60
2023-10-20T02:43:32.866Z,15.60
2023-10-20T02:46:00.041Z,15.70
2023-10-20T02:48:28.348Z,15.80
2023-10-20T02:50:55.477Z,15.80
2023-10-20T02:53:22.597Z,15.90
2023-10-20T02:55:50.981Z,15.90
2023-10-20T02:58:18.254Z,15.90
2023-10-20T03:00:46.672Z,15.80
2023-10-20T03:03:14.991Z,15.90
2023-10-20T03:05:46.879Z,15.80
2023-10-20T03:08:14.295Z,15.90
2023-10-20T03:10:41.332Z,15.90
2023-10-20T03:13:08.228Z,15.90
2023-10-20T03:15:35.169Z,15.90
2023-10-20T03:18:02.272Z,15.90
2023-10-20T03:20:34.269Z,15.90
2023-10-20T03:23:01.287Z,16.00
2023-10-20T03:25:28.234Z,16.00
2023-10-20T03:27:55.197Z,16.00
2023-10-20T03:30:22.244Z,16.00
2023-10-20T03:32:49.798Z,16.00
2023-10-20T03:35:17.544Z,16.00
2023-10-20T03:37:44.682Z,16.00
2023-10-20T03:40:17.823Z,16.00
2023-10-20T03:42:45.349Z,15.90
2023-10-20T03:45:14.894Z,15.90
2023-10-20T03:47:42.191Z,15.90
2023-10-20T03:50:17.366Z,15.90
2023-10-20T03:52:47.006Z,15.90
2023-10-20T03:55:17.548Z,15.90
2023-10-20T03:57:45.951Z,15.90
2023-10-20T04:00:23.554Z,15.90
2023-10-20T04:02:53.230Z,16.00
2023-10-20T04:05:21.021Z,16.00
2023-10-20T04:07:48.205Z,16.00
2023-10-20T04:10:21.591Z,16.00
2023-10-20T04:12:49.242Z,16.00
2023-10-20T04:15:16.699Z,16.00
2023-10-20T04:17:46.063Z,16.00
2023-10-20T04:20:19.395Z,16.00
2023-10-20T04:22:51.226Z,16.10
2023-10-20T04:25:28.685Z,16.10
2023-10-20T04:27:59.419Z,16.10
2023-10-20T04:30:45.093Z,16.10
2023-10-20T04:33:30.902Z,16.20
2023-10-20T04:36:16.445Z,16.10
2023-10-20T04:39:01.857Z,16.10
2023-10-20T04:41:47.636Z,16.10
2023-10-20T04:44:17.577Z,16.10
2023-10-20T04:46:58.151Z,16.10
2023-10-20T04:49:39.965Z,16.10
2023-10-20T04:52:26.497Z,16.10
2023-10-20T04:55:11.560Z,16.10
2023-10-20T04:57:41.907Z,16.10
2023-10-20T05:00:29.384Z,16.20
2023-10-20T05:03:14.355Z,16.20
2023-10-20T05:05:45.602Z,16.20
2023-10-20T05:08:12.585Z,16.30
2023-10-20T05:10:42.475Z,16.30
2023-10-20T05:13:10.307Z,16.30
2023-10-20T05:15:40.364Z,16.20
2023-10-20T05:20:44.012Z,16.20
2023-10-20T05:23:17.432Z,16.20
2023-10-20T05:25:50.830Z,16.30
2023-10-20T05:28:18.268Z,16.30
2023-10-20T05:30:48.412Z,16.30
2023-10-20T05:33:16.791Z,16.30
2023-10-20T05:35:45.169Z,16.40
2023-10-20T05:38:12.289Z,16.50
2023-10-20T05:40:40.493Z,16.60
2023-10-20T05:43:07.853Z,16.60
2023-10-20T05:45:39.254Z,16.60
2023-10-20T05:48:07.301Z,16.70
2023-10-20T05:50:36.494Z,16.70
2023-10-20T05:53:03.993Z,16.80
2023-10-20T05:55:30.950Z,16.80
2023-10-20T05:57:57.889Z,16.90
2023-10-20T06:00:24.814Z,16.90
2023-10-20T06:02:51.975Z,17.00
2023-10-20T06:05:20.246Z,17.00
2023-10-20T06:07:49.261Z,17.10
2023-10-20T06:10:25.641Z,17.10
2023-10-20T06:12:54.393Z,17.10
2023-10-20T06:15:21.975Z,17.10
2023-10-20T06:17:53.059Z,17.10
2023-10-20T06:20:20.231Z,17.20
2023-10-20T06:22:47.281Z,17.20
2023-10-20T06:25:14.853Z,17.20
2023-10-20T06:27:43.782Z,17.30
2023-10-20T06:30:16.206Z,17.30
2023-10-20T06:32:44.633Z,17.30
2023-10-20T06:35:14.344Z,17.30
2023-10-20T06:37:41.512Z,17.30
2023-10-20T06:40:09.239Z,17.40
2023-10-20T06:42:36.188Z,17.40
2023-10-20T06:45:03.582Z,17.50
2023-10-20T06:47:31.064Z,17.60
2023-10-20T06:49:58.014Z,17.70
2023-10-20T06:52:24.987Z,17.70
2023-10-20T06:55:15.362Z,17.80
2023-10-20T06:57:38.725Z,17.80
2023-10-20T07:00:07.942Z,17.80
2023-10-20T07:02:35.344Z,17.80
2023-10-20T07:05:03.060Z,17.80
2023-10-20T07:07:29.983Z,17.80
2023-10-20T07:09:56.928Z,17.80
2023-10-20T07:12:23.804Z,17.80
2023-10-20T07:14:50.836Z,17.80
2023-10-20T07:17:17.794Z,17.90
2023-10-20T07:19:44.743Z,17.90
2023-10-20T07:22:11.768Z,17.90
2023-10-20T07:24:40.652Z,18.00
2023-10-20T07:27:07.742Z,18.00
2023-10-20T07:29:37.882Z,18.10
2023-10-20T07:32:08.769Z,18.10
2023-10-20T07:34:35.748Z,18.10
2023-10-20T07:37:02.756Z,18.10
2023-10-20T07:39:29.868Z,18.10
2023-10-20T07:41:56.784Z,18.10
2023-10-20T07:44:24.714Z,18.20
2023-10-20T07:46:52.335Z,18.20
2023-10-20T07:49:19.261Z,18.30
2023-10-20T07:51:46.319Z,18.40
2023-10-20T07:54:13.824Z,18.50
2023-10-20T07:56:40.889Z,18.70
2023-10-20T07:59:09.278Z,18.70
2023-10-20T08:01:36.290Z,18.80
2023-10-20T08:04:03.839Z,18.90
2023-10-20T08:06:31.545Z,18.90
2023-10-20T08:08:59.087Z,18.80
2023-10-20T08:11:26.715Z,18.90
2023-10-20T08:13:53.903Z,18.80
2023-10-20T08:16:24.925Z,18.90
2023-10-20T08:18:52.584Z,18.90
2023-10-20T08:21:20.553Z,18.90
2023-10-20T08:23:47.667Z,18.90
2023-10-20T08:26:20.628Z,19.00
2023-10-20T08:28:48.032Z,19.00
2023-10-20T08:31:15.625Z,19.10
2023-10-20T08:33:42.673Z,19.20
2023-10-20T08:36:21.750Z,19.30
2023-10-20T08:38:53.205Z,19.40
2023-10-20T08:41:23.032Z,19.40
2023-10-20T08:43:51.223Z,19.40
2023-10-20T08:46:19.338Z,19.40
2023-10-20T08:48:48.191Z,19.50
2023-10-20T08:51:18.614Z,19.50
2023-10-20T08:53:47.208Z,19.60
2023-10-20T08:56:15.318Z,19.60
2023-10-20T08:58:46.297Z,19.70
2023-10-20T09:01:14.786Z,19.70
2023-10-20T09:03:44.567Z,19.80
2023-10-20T09:06:15.437Z,19.80
2023-10-20T09:08:44.989Z,19.80
2023-10-20T09:11:13.427Z,19.80
2023-10-20T09:13:42.307Z,19.80
2023-10-20T09:16:10.908Z,19.90
2023-10-20T09:18:54.558Z,19.90
2023-10-20T09:21:24.165Z,20.00
2023-10-20T09:24:04.369Z,20.10
2023-10-20T09:26:36.209Z,20.20
2023-10-20T09:29:09.407Z,20.30
2023-10-20T09:31:38.266Z,20.30
2023-10-20T09:34:08.987Z,20.40
2023-10-20T09:36:37.648Z,20.50
2023-10-20T09:39:09.552Z,20.50
2023-10-20T09:41:44.387Z,20.60
2023-10-20T09:44:21.760Z,20.60
2023-10-20T09:47:14.264Z,20.70
2023-10-20T09:49:42.497Z,20.70
2023-10-20T09:52:09.423Z,20.70
2023-10-20T09:54:36.824Z,20.80
2023-10-20T09:57:07.273Z,20.90
2023-10-20T09:59:35.658Z,20.90
2023-10-20T10:02:02.923Z,21.00
2023-10-20T10:04:34.662Z,21.10
2023-10-20T10:07:05.344Z,21.20
2023-10-20T10:09:50.459Z,21.30
2023-10-20T10:12:22.100Z,21.40
2023-10-20T10:14:59.341Z,21.60
2023-10-20T10:17:29.728Z,21.70
2023-10-20T10:19:57.966Z,21.70
2023-10-20T10:22:31.839Z,21.70
2023-10-20T10:25:02.239Z,21.80
2023-10-20T10:27:30.963Z,21.80
2023-10-20T10:30:02.558Z,21.90
2023-10-20T10:32:35.453Z,22.00
2023-10-20T10:35:05.565Z,22.10
2023-10-20T10:37:39.490Z,22.10
2023-10-20T10:40:15.299Z,22.20
2023-10-20T10:42:44.577Z,22.30
2023-10-20T10:45:21.183Z,22.40
2023-10-20T10:47:49.546Z,22.50
2023-10-20T10:50:18.214Z,22.60
2023-10-20T10:52:45.330Z,22.80
2023-10-20T10:55:12.632Z,22.80
2023-10-20T10:57:41.802Z,22.90
2023-10-20T11:00:09.906Z,23.00
2023-10-20T11:02:36.975Z,23.10
2023-10-20T11:05:05.108Z,23.20
2023-10-20T11:07:32.122Z,23.20
2023-10-20T11:09:59.020Z,23.20
2023-10-20T11:12:26.170Z,23.30
2023-10-20T11:14:58.482Z,23.30
2023-10-20T11:17:25.844Z,23.40
2023-10-20T11:19:52.874Z,23.50
2023-10-20T11:22:19.932Z,23.60
2023-10-20T11:24:54.009Z,23.70
2023-10-20T11:27:21.573Z,23.70
2023-10-20T11:29:58.908Z,23.80
2023-10-20T11:32:27.574Z,23.90
2023-10-20T11:34:54.725Z,24.00
2023-10-20T11:37:21.647Z,24.10
2023-10-20T11:39:48.574Z,24.40
2023-10-20T11:42:15.760Z,24.70
2023-10-20T11:44:42.787Z,25.00
2023-10-20T11:47:09.790Z,25.20
2023-10-20T11:49:37.020Z,25.20
2023-10-20T11:52:04.086Z,25.20
2023-10-20T11:54:33.061Z,25.20
2023-10-20T11:57:00.367Z,25.10
2023-10-20T11:59:27.342Z,25.10
2023-10-20T12:01:54.367Z,25.10
2023-10-20T12:04:21.297Z,25.10
2023-10-20T12:06:48.370Z,25.10
2023-10-20T12:09:20.999Z,25.10
2023-10-20T12:11:48.476Z,25.20
2023-10-20T12:14:16.297Z,25.10
2023-10-20T12:16:43.910Z,25.20
2023-10-20T12:19:10.903Z,25.10
2023-10-20T12:21:38.246Z,25.10
2023-10-20T12:24:05.908Z,25.10
2023-10-20T12:26:33.052Z,25.10
2023-10-20T12:29:00.038Z,25.00
2023-10-20T12:31:27.190Z,25.00
2023-10-20T12:33:54.293Z,25.00
2023-10-20T12:36:22.506Z,25.00
2023-10-20T12:38:49.727Z,24.90
2023-10-20T12:41:16.789Z,24.90
2023-10-20T12:43:45.713Z,24.90
2023-10-20T12:46:13.125Z,24.90
2023-10-20T12:48:41.266Z,24.90
2023-10-20T12:51:11.594Z,24.90
2023-10-20T12:53:38.700Z,24.90
2023-10-20T12:56:06.453Z,24.90
2023-10-20T12:58:34.323Z,24.90
2023-10-20T13:01:01.370Z,24.80
2023-10-20T13:03:28.809Z,24.80
2023-10-20T13:05:56.646Z,24.90
2023-10-20T13:08:25.380Z,24.90
2023-10-20T13:10:52.944Z,24.90
2023-10-20T13:13:19.946Z,24.90
2023-10-20T13:15:47.344Z,24.90
2023-10-20T13:18:14.528Z,24.90
2023-10-20T13:20:42.088Z,24.80
2023-10-20T13:23:09.438Z,24.80
2023-10-20T13:25:36.521Z,24.70
2023-10-20T13:28:05.532Z,24.80
2023-10-20T13:30:32.610Z,24.70
2023-10-20T13:33:00.962Z,24.70
2023-10-20T13:35:28.071Z,24.70
2023-10-20T13:37:55.064Z,24.60
2023-10-20T13:40:21.962Z,24.60
2023-10-20T13:42:48.896Z,24.60
2023-10-20T13:45:16.007Z,24.50
2023-10-20T13:47:43.026Z,24.40
2023-10-20T13:50:10.618Z,24.40
2023-10-20T13:52:37.617Z,24.30
2023-10-20T13:55:05.043Z,24.20
2023-10-20T13:57:31.980Z,24.20
2023-10-20T13:59:58.985Z,24.20
2023-10-20T14:02:26.137Z,24.20
2023-10-20T14:04:53.261Z,24.10
2023-10-20T14:07:20.220Z,24.20
2023-10-20T14:09:47.186Z,24.20
2023-10-20T14:12:14.105Z,24.20
2023-10-20T14:14:41.057Z,24.20
2023-10-20T14:17:08.093Z,24.20
2023-10-20T14:19:35.979Z,24.10
2023-10-20T14:22:03.182Z,24.10
2023-10-20T14:24:30.164Z,24.10
2023-10-20T14:27:00.224Z,24.10
2023-10-20T14:29:27.300Z,24.10
2023-10-20T14:31:54.350Z,24.10
2023-10-20T14:34:21.269Z,24.10
2023-10-20T14:36:48.163Z,24.10
2023-10-20T14:39:15.062Z,24.10
2023-10-20T14:41:42.029Z,24.00
2023-10-20T14:44:08.947Z,24.00
2023-10-20T14:46:36.092Z,24.00
2023-10-20T14:49:03.511Z,24.00
2023-10-20T14:51:30.476Z,24.10
2023-10-20T14:53:57.605Z,24.10
2023-10-20T14:56:25.090Z,24.10
2023-10-20T14:58:52.022Z,24.00
2023-10-20T15:01:19.011Z,24.00
2023-10-20T15:03:46.529Z,24.10
2023-10-20T15:06:14.467Z,24.10
2023-10-20T15:08:41.505Z,24.10
2023-10-20T15:11:09.239Z,24.00
2023-10-20T15:13:36.643Z,24.00
2023-10-20T15:16:06.196Z,23.90
2023-10-20T15:18:33.506Z,23.90
2023-10-20T15:21:00.630Z,23.90
2023-10-20T15:23:27.651Z,23.90
2023-10-20T15:25:54.626Z,23.80
2023-10-20T15:28:22.230Z,23.70
2023-10-20T15:30:49.544Z,23.70
2023-10-20T15:33:18.989Z,23.70
2023-10-20T15:35:47.758Z,23.70
2023-10-20T15:38:14.983Z,23.60
2023-10-20T15:40:43.336Z,23.70
2023-10-20T15:43:10.261Z,23.60
2023-10-20T15:45:37.308Z,23.60
2023-10-20T15:48:05.377Z,23.70
2023-10-20T15:50:33.899Z,23.70
2023-10-20T15:53:01.173Z,23.60
2023-10-20T15:55:28.246Z,23.60
2023-10-20T15:57:55.299Z,23.60
2023-10-20T16:00:22.452Z,23.60
2023-10-20T16:02:49.459Z,23.60
2023-10-20T16:05:16.529Z,23.50
2023-10-20T16:07:43.510Z,23.50
2023-10-20T16:10:10.574Z,23.40
2023-10-20T16:12:37.488Z,23.40
2023-10-20T16:15:07.601Z,23.30
2023-10-20T16:17:34.957Z,23.30
2023-10-20T16:20:03.632Z,23.30
2023-10-20T16:22:32.359Z,23.20
2023-10-20T16:24:59.536Z,23.20
2023-10-20T16:27:26.969Z,23.10
2023-10-20T16:29:54.255Z,23.00
2023-10-20T16:32:21.481Z,23.00
2023-10-20T16:34:48.601Z,23.00
2023-10-20T16:37:15.558Z,22.90
2023-10-20T16:39:43.212Z,23.00
2023-10-20T16:42:11.728Z,23.00
2023-10-20T16:44:39.066Z,23.00
2023-10-20T16:47:06.183Z,22.90
2023-10-20T16:49:33.916Z,22.80
2023-10-20T16:52:01.164Z,22.90
2023-10-20T16:54:28.103Z,22.90
2023-10-20T16:56:55.741Z,23.00
2023-10-20T16:59:27.062Z,23.00
2023-10-20T17:01:54.904Z,23.00
2023-10-20T17:04:22.630Z,23.00
2023-10-20T17:06:49.653Z,23.00
2023-10-20T17:09:17.107Z,22.90
2023-10-20T17:11:45.670Z,22.90
2023-10-20T17:14:12.867Z,22.80
2023-10-20T17:16:44.184Z,22.80
2023-10-20T17:19:11.511Z,22.70
2023-10-20T17:21:38.779Z,22.80
2023-10-20T17:24:06.141Z,22.80
2023-10-20T17:26:33.208Z,22.80
2023-10-20T17:29:00.206Z,22.80
2023-10-20T17:31:27.917Z,22.80
2023-10-20T17:33:56.011Z,22.90
2023-10-20T17:36:24.354Z,22.90
2023-10-20T17:38:52.632Z,23.00
2023-10-20T17:41:20.182Z,23.00
2023-10-20T17:43:47.519Z,23.00
2023-10-20T17:46:18.281Z,23.00
2023-10-20T17:48:47.414Z,22.90
2023-10-20T17:51:15.292Z,22.90
2023-10-20T17:53:43.205Z,22.90
2023-10-20T17:56:10.873Z,22.90
2023-10-20T17:58:38.314Z,22.90
2023-10-20T18:01:11.968Z,22.90
2023-10-20T18:03:41.261Z,22.90
2023-10-20T18:06:18.793Z,22.90
2023-10-20T18:08:52.907Z,23.00
2023-10-20T18:11:22.817Z,22.90
2023-10-20T18:13:52.855Z,22.90
2023-10-20T18:16:22.981Z,22.80
2023-10-20T18:18:51.908Z,22.80
2023-10-20T18:21:20.955Z,22.80
2023-10-20T18:23:48.966Z,22.80
2023-10-20T18:26:18.301Z,22.80
2023-10-20T18:28:46.328Z,22.80
2023-10-20T18:31:18.033Z,22.80
2023-10-20T18:33:49.292Z,22.80
2023-10-20T18:36:17.141Z,22.80
2023-10-20T18:38:44.768Z,22.80
2023-10-20T18:41:20.527Z,22.80
2023-10-20T18:43:49.595Z,22.70
2023-10-20T18:46:21.616Z,22.70
2023-10-20T18:48:49.632Z,22.70
2023-10-20T18:51:18.589Z,22.70
2023-10-20T18:53:47.648Z,22.70
2023-10-20T18:56:15.242Z,22.70
2023-10-20T18:58:45.557Z,22.60
2023-10-20T19:01:15.644Z,22.60
2023-10-20T19:03:43.979Z,22.60
2023-10-20T19:06:14.535Z,22.60
2023-10-20T19:08:43.888Z,22.50
2023-10-20T19:11:12.344Z,22.50
2023-10-20T19:13:41.067Z,22.40
2023-10-20T19:16:09.501Z,22.40
2023-10-20T19:18:40.644Z,22.40
2023-10-20T19:21:12.651Z,22.40
2023-10-20T19:23:43.316Z,22.40
2023-10-20T19:26:12.091Z,22.30
2023-10-20T19:28:44.302Z,22.20
2023-10-20T19:31:11.969Z,22.20
2023-10-20T19:33:40.212Z,22.10
2023-10-20T19:36:09.842Z,22.00
2023-10-20T19:38:38.216Z,22.00
2023-10-20T19:41:06.000Z,21.90
2023-10-20T19:43:33.515Z,21.80
2023-10-20T19:46:00.775Z,21.70
2023-10-20T19:48:28.327Z,21.70
2023-10-20T19:50:57.074Z,21.60
2023-10-20T19:53:24.930Z,21.60
2023-10-20T19:55:53.822Z,21.50
2023-10-20T19:58:23.029Z,21.50
2023-10-20T20:00:50.368Z,21.40
2023-10-20T20:03:17.891Z,21.40
2023-10-20T20:05:45.139Z,21.30
2023-10-20T20:08:14.031Z,21.30
2023-10-20T20:10:41.599Z,21.30
2023-10-20T20:13:08.829Z,21.30
2023-10-20T20:15:36.286Z,21.30
2023-10-20T20:18:04.512Z,21.30
2023-10-20T20:20:31.704Z,21.20
2023-10-20T20:22:59.103Z,21.20
2023-10-20T20:25:26.496Z,21.20
2023-10-20T20:27:53.529Z,21.20
2023-10-20T20:30:21.461Z,21.20
2023-10-20T20:32:48.607Z,21.10
2023-10-20T20:35:15.755Z,21.10
2023-10-20T20:37:42.906Z,21.10
2023-10-20T20:40:10.059Z,21.10
2023-10-20T20:42:37.086Z,21.10
2023-10-20T20:45:04.491Z,21.00
2023-10-20T20:47:31.582Z,20.90
2023-10-20T20:49:59.621Z,20.90
2023-10-20T20:52:26.551Z,20.90
2023-10-20T20:54:56.038Z,20.80
2023-10-20T20:57:23.679Z,20.90
2023-10-20T20:59:50.749Z,20.90
2023-10-20T21:02:17.845Z,20.80
2023-10-20T21:04:44.890Z,20.90
2023-10-20T21:07:11.836Z,20.80
2023-10-20T21:09:38.789Z,20.80
2023-10-20T21:12:05.964Z,20.80
2023-10-20T21:14:33.079Z,20.70
2023-10-20T21:17:00.614Z,20.70
2023-10-20T21:19:27.998Z,20.60
2023-10-20T21:21:54.907Z,20.50
2023-10-20T21:24:25.005Z,20.30
2023-10-20T21:26:54.349Z,20.20
2023-10-20T21:29:21.256Z,20.10
2023-10-20T21:31:48.131Z,20.00
2023-10-20T21:34:15.252Z,19.90
2023-10-20T21:36:42.343Z,19.80
2023-10-20T21:39:12.102Z,19.70
2023-10-20T21:41:39.118Z,19.70
2023-10-20T21:44:07.775Z,19.70
2023-10-20T21:46:35.744Z,19.70
2023-10-20T21:49:03.338Z,19.70
2023-10-20T21:51:30.284Z,19.70
2023-10-20T21:53:57.896Z,19.70
2023-10-20T21:56:24.910Z,19.70
2023-10-20T21:58:51.834Z,19.80
2023-10-20T22:01:18.997Z,19.80
2023-10-20T22:03:47.042Z,19.80
2023-10-20T22:06:14.196Z,19.80
2023-10-20T22:08:41.221Z,19.70
2023-10-20T22:11:08.277Z,19.70
2023-10-20T22:13:35.175Z,19.60
2023-10-20T22:16:02.133Z,19.50
2023-10-20T22:18:29.209Z,19.50
2023-10-20T22:20:56.182Z,19.60
2023-10-20T22:23:26.175Z,19.70
2023-10-20T22:25:53.170Z,19.80
2023-10-20T22:28:20.565Z,19.90
2023-10-20T22:30:47.528Z,20.00
2023-10-20T22:33:14.857Z,20.20
2023-10-20T22:35:41.956Z,20.20
2023-10-20T22:38:09.013Z,20.30
2023-10-20T22:40:35.928Z,20.40
2023-10-20T22:43:02.878Z,20.50
2023-10-20T22:45:29.777Z,20.40
2023-10-20T22:47:56.733Z,20.40
2023-10-20T22:50:23.717Z,20.50
2023-10-20T22:52:50.675Z,20.70
2023-10-20T22:55:17.710Z,20.80
2023-10-20T22:57:44.730Z,20.80
2023-10-20T23:00:12.498Z,20.90
2023-10-20T23:02:41.171Z,20.90
2023-10-20T23:05:10.396Z,21.10
2023-10-20T23:07:37.444Z,21.20
2023-10-20T23:10:05.666Z,21.20
2023-10-20T23:12:34.274Z,21.30
2023-10-20T23:15:01.607Z,21.40
2023-10-20T23:17:28.683Z,21.40
2023-10-20T23:19:55.917Z,21.40
2023-10-20T23:22:22.864Z,21.40
2023-10-20T23:24:49.812Z,21.40
2023-10-20T23:27:16.760Z,21.40
2023-10-20T23:29:43.742Z,21.40
2023-10-20T23:32:10.727Z,21.50
2023-10-20T23:34:38.011Z,21.40
2023-10-20T23:37:05.678Z,21.40
2023-10-20T23:39:34.422Z,21.50
2023-10-20T23:42:02.163Z,21.40
2023-10-20T23:44:31.122Z,21.40
2023-10-20T23:46:58.282Z,21.50
2023-10-20T23:49:25.578Z,21.50
2023-10-20T23:51:53.013Z,21.40
2023-10-20T23:54:20.045Z,21.50
2023-10-20T23:56:47.074Z,21.50
2023-10-20T23:59:13.947Z,21.50
